sensor_id;sensor_type;location;lat;lon;timestamp;P1;durP1;ratioP1;P2;durP2;ratioP2
65172;SDS011;69059;52.218;5.172;2023-12-04T00:01:17;35.43;;;17.77;;
65172;SDS011;69059;52.218;5.172;2023-12-04T00:03:45;30.97;;;15.03;;
65172;SDS011;69059;52.218;5.172;2023-12-04T00:06:13;35.97;;;16.90;;
65172;SDS011;69059;52.218;5.172;2023-12-04T00:08:41;33.53;;;15.82;;
65172;SDS011;69059;52.218;5.172;2023-12-04T00:11:09;34.50;;;17.47;;
65172;SDS011;69059;52.218;5.172;2023-12-04T00:13:37;32.47;;;16.77;;
65172;SDS011;69059;52.218;5.172;2023-12-04T00:16:05;36.80;;;18.13;;
65172;SDS011;69059;52.218;5.172;2023-12-04T00:18:34;33.38;;;16.20;;
65172;SDS011;69059;52.218;5.172;2023-12-04T00:21:02;34.03;;;16.17;;
65172;SDS011;69059;52.218;5.172;2023-12-04T00:23:30;30.23;;;14.88;;
65172;SDS011;69059;52.218;5.172;2023-12-04T00:25:58;35.37;;;19.77;;
65172;SDS011;69059;52.218;5.172;2023-12-04T00:28:25;32.00;;;15.03;;
65172;SDS011;69059;52.218;5.172;2023-12-04T00:30:55;35.40;;;17.30;;
65172;SDS011;69059;52.218;5.172;2023-12-04T00:33:22;33.93;;;16.60;;
65172;SDS011;69059;52.218;5.172;2023-12-04T00:35:52;34.20;;;15.80;;
65172;SDS011;69059;52.218;5.172;2023-12-04T00:38:19;35.40;;;17.97;;
65172;SDS011;69059;52.218;5.172;2023-12-04T00:40:47;33.17;;;16.40;;
65172;SDS011;69059;52.218;5.172;2023-12-04T00:43:15;33.67;;;15.00;;
65172;SDS011;69059;52.218;5.172;2023-12-04T00:45:43;31.70;;;15.07;;
65172;SDS011;69059;52.218;5.172;2023-12-04T00:48:10;31.63;;;16.20;;
65172;SDS011;69059;52.218;5.172;2023-12-04T00:50:38;32.83;;;14.77;;
65172;SDS011;69059;52.218;5.172;2023-12-04T00:53:07;36.17;;;16.37;;
65172;SDS011;69059;52.218;5.172;2023-12-04T00:55:35;35.33;;;17.10;;
65172;SDS011;69059;52.218;5.172;2023-12-04T00:58:02;33.10;;;15.40;;
65172;SDS011;69059;52.218;5.172;2023-12-04T01:00:30;29.10;;;15.27;;
65172;SDS011;69059;52.218;5.172;2023-12-04T01:02:58;33.45;;;16.35;;
65172;SDS011;69059;52.218;5.172;2023-12-04T01:05:26;35.03;;;16.83;;
65172;SDS011;69059;52.218;5.172;2023-12-04T01:07:54;36.10;;;17.27;;
65172;SDS011;69059;52.218;5.172;2023-12-04T01:10:23;37.27;;;16.23;;
65172;SDS011;69059;52.218;5.172;2023-12-04T01:12:51;32.97;;;15.87;;
65172;SDS011;69059;52.218;5.172;2023-12-04T01:15:18;35.97;;;15.77;;
65172;SDS011;69059;52.218;5.172;2023-12-04T01:17:46;32.00;;;15.27;;
65172;SDS011;69059;52.218;5.172;2023-12-04T01:20:14;34.95;;;16.90;;
65172;SDS011;69059;52.218;5.172;2023-12-04T01:22:42;36.03;;;17.98;;
65172;SDS011;69059;52.218;5.172;2023-12-04T01:25:10;40.07;;;16.93;;
65172;SDS011;69059;52.218;5.172;2023-12-04T01:27:39;38.67;;;16.57;;
65172;SDS011;69059;52.218;5.172;2023-12-04T01:30:07;40.83;;;17.10;;
65172;SDS011;69059;52.218;5.172;2023-12-04T01:35:04;35.03;;;16.00;;
65172;SDS011;69059;52.218;5.172;2023-12-04T01:40:00;35.00;;;15.83;;
65172;SDS011;69059;52.218;5.172;2023-12-04T01:42:28;35.72;;;16.73;;
65172;SDS011;69059;52.218;5.172;2023-12-04T01:44:57;35.87;;;16.53;;
65172;SDS011;69059;52.218;5.172;2023-12-04T01:47:24;40.07;;;18.53;;
65172;SDS011;69059;52.218;5.172;2023-12-04T01:49:52;33.88;;;16.52;;
65172;SDS011;69059;52.218;5.172;2023-12-04T01:52:20;37.90;;;16.93;;
65172;SDS011;69059;52.218;5.172;2023-12-04T01:54:48;37.08;;;16.33;;
65172;SDS011;69059;52.218;5.172;2023-12-04T01:57:16;37.97;;;16.30;;
65172;SDS011;69059;52.218;5.172;2023-12-04T01:59:44;36.83;;;15.87;;
65172;SDS011;69059;52.218;5.172;2023-12-04T02:04:42;37.33;;;17.40;;
65172;SDS011;69059;52.218;5.172;2023-12-04T02:07:11;36.85;;;16.88;;
65172;SDS011;69059;52.218;5.172;2023-12-04T02:09:39;34.53;;;17.50;;
65172;SDS011;69059;52.218;5.172;2023-12-04T02:12:07;38.83;;;16.67;;
65172;SDS011;69059;52.218;5.172;2023-12-04T02:14:35;37.45;;;17.02;;
65172;SDS011;69059;52.218;5.172;2023-12-04T02:17:03;37.63;;;16.63;;
65172;SDS011;69059;52.218;5.172;2023-12-04T02:19:34;37.53;;;16.90;;
65172;SDS011;69059;52.218;5.172;2023-12-04T02:22:02;38.70;;;17.60;;
65172;SDS011;69059;52.218;5.172;2023-12-04T02:24:31;37.03;;;17.33;;
65172;SDS011;69059;52.218;5.172;2023-12-04T02:27:04;41.27;;;18.30;;
65172;SDS011;69059;52.218;5.172;2023-12-04T02:29:40;33.25;;;16.02;;
65172;SDS011;69059;52.218;5.172;2023-12-04T02:32:14;34.83;;;17.10;;
65172;SDS011;69059;52.218;5.172;2023-12-04T02:34:44;41.87;;;16.10;;
65172;SDS011;69059;52.218;5.172;2023-12-04T02:37:14;36.30;;;16.33;;
65172;SDS011;69059;52.218;5.172;2023-12-04T02:39:44;40.15;;;16.30;;
65172;SDS011;69059;52.218;5.172;2023-12-04T02:42:12;37.53;;;17.23;;
65172;SDS011;69059;52.218;5.172;2023-12-04T02:44:40;31.58;;;15.30;;
65172;SDS011;69059;52.218;5.172;2023-12-04T02:47:08;35.53;;;16.13;;
65172;SDS011;69059;52.218;5.172;2023-12-04T02:49:36;36.30;;;16.40;;
65172;SDS011;69059;52.218;5.172;2023-12-04T02:52:03;34.23;;;16.57;;
65172;SDS011;69059;52.218;5.172;2023-12-04T02:54:31;32.50;;;16.33;;
65172;SDS011;69059;52.218;5.172;2023-12-04T02:57:01;33.87;;;15.07;;
65172;SDS011;69059;52.218;5.172;2023-12-04T02:59:28;32.33;;;15.90;;
65172;SDS011;69059;52.218;5.172;2023-12-04T03:01:57;33.30;;;16.00;;
65172;SDS011;69059;52.218;5.172;2023-12-04T03:04:24;33.70;;;16.00;;
65172;SDS011;69059;52.218;5.172;2023-12-04T03:06:53;33.28;;;16.33;;
65172;SDS011;69059;52.218;5.172;2023-12-04T03:09:20;32.17;;;15.10;;
65172;SDS011;69059;52.218;5.172;2023-12-04T03:12:09;32.93;;;15.30;;
65172;SDS011;69059;52.218;5.172;2023-12-04T03:14:37;32.37;;;16.87;;
65172;SDS011;69059;52.218;5.172;2023-12-04T03:17:05;35.07;;;19.83;;
65172;SDS011;69059;52.218;5.172;2023-12-04T03:19:33;32.13;;;16.13;;
65172;SDS011;69059;52.218;5.172;2023-12-04T03:22:01;31.25;;;15.27;;
65172;SDS011;69059;52.218;5.172;2023-12-04T03:24:29;32.80;;;15.20;;
65172;SDS011;69059;52.218;5.172;2023-12-04T03:26:58;33.07;;;16.03;;
65172;SDS011;69059;52.218;5.172;2023-12-04T03:31:55;29.27;;;14.60;;
65172;SDS011;69059;52.218;5.172;2023-12-04T03:34:24;30.63;;;15.45;;
65172;SDS011;69059;52.218;5.172;2023-12-04T03:36:51;31.67;;;14.23;;
65172;SDS011;69059;52.218;5.172;2023-12-04T03:39:19;32.83;;;15.23;;
65172;SDS011;69059;52.218;5.172;2023-12-04T03:41:47;33.33;;;14.90;;
65172;SDS011;69059;52.218;5.172;2023-12-04T03:44:15;30.77;;;14.93;;
65172;SDS011;69059;52.218;5.172;2023-12-04T03:46:44;31.23;;;14.83;;
65172;SDS011;69059;52.218;5.172;2023-12-04T03:49:11;30.20;;;15.50;;
65172;SDS011;69059;52.218;5.172;2023-12-04T03:51:39;33.80;;;15.37;;
65172;SDS011;69059;52.218;5.172;2023-12-04T03:54:07;27.50;;;14.10;;
65172;SDS011;69059;52.218;5.172;2023-12-04T03:56:35;32.40;;;14.97;;
65172;SDS011;69059;52.218;5.172;2023-12-04T03:59:03;30.17;;;14.60;;
65172;SDS011;69059;52.218;5.172;2023-12-04T04:01:30;26.03;;;13.87;;
65172;SDS011;69059;52.218;5.172;2023-12-04T04:03:59;27.17;;;14.03;;
65172;SDS011;69059;52.218;5.172;2023-12-04T04:06:27;26.33;;;13.77;;
65172;SDS011;69059;52.218;5.172;2023-12-04T04:08:55;29.33;;;15.13;;
65172;SDS011;69059;52.218;5.172;2023-12-04T04:11:23;28.93;;;14.23;;
65172;SDS011;69059;52.218;5.172;2023-12-04T04:13:50;27.07;;;13.43;;
65172;SDS011;69059;52.218;5.172;2023-12-04T04:16:18;26.67;;;14.93;;
65172;SDS011;69059;52.218;5.172;2023-12-04T04:18:46;28.27;;;14.47;;
65172;SDS011;69059;52.218;5.172;2023-12-04T04:21:15;26.33;;;13.47;;
65172;SDS011;69059;52.218;5.172;2023-12-04T04:23:43;26.97;;;13.53;;
65172;SDS011;69059;52.218;5.172;2023-12-04T04:26:10;28.97;;;13.83;;
65172;SDS011;69059;52.218;5.172;2023-12-04T04:28:38;25.50;;;13.50;;
65172;SDS011;69059;52.218;5.172;2023-12-04T04:31:06;24.93;;;13.67;;
65172;SDS011;69059;52.218;5.172;2023-12-04T04:33:34;27.85;;;14.13;;
65172;SDS011;69059;52.218;5.172;2023-12-04T04:36:02;27.10;;;13.27;;
65172;SDS011;69059;52.218;5.172;2023-12-04T04:38:31;26.95;;;14.15;;
65172;SDS011;69059;52.218;5.172;2023-12-04T04:40:59;21.67;;;12.60;;
65172;SDS011;69059;52.218;5.172;2023-12-04T04:43:26;26.97;;;13.53;;
65172;SDS011;69059;52.218;5.172;2023-12-04T04:45:54;23.80;;;13.13;;
65172;SDS011;69059;52.218;5.172;2023-12-04T04:48:22;27.23;;;13.57;;
65172;SDS011;69059;52.218;5.172;2023-12-04T04:50:50;25.60;;;13.40;;
65172;SDS011;69059;52.218;5.172;2023-12-04T04:53:17;24.80;;;13.90;;
65172;SDS011;69059;52.218;5.172;2023-12-04T04:55:46;21.73;;;13.40;;
65172;SDS011;69059;52.218;5.172;2023-12-04T04:58:15;29.03;;;14.20;;
65172;SDS011;69059;52.218;5.172;2023-12-04T05:00:42;22.80;;;12.87;;
65172;SDS011;69059;52.218;5.172;2023-12-04T05:03:10;26.87;;;13.90;;
65172;SDS011;69059;52.218;5.172;2023-12-04T05:05:38;23.00;;;14.17;;
65172;SDS011;69059;52.218;5.172;2023-12-04T05:08:06;24.38;;;13.80;;
65172;SDS011;69059;52.218;5.172;2023-12-04T05:10:34;25.43;;;13.00;;
65172;SDS011;69059;52.218;5.172;2023-12-04T05:13:03;25.03;;;13.73;;
65172;SDS011;69059;52.218;5.172;2023-12-04T05:15:30;21.43;;;12.83;;
65172;SDS011;69059;52.218;5.172;2023-12-04T05:17:58;24.63;;;13.53;;
65172;SDS011;69059;52.218;5.172;2023-12-04T05:20:26;23.77;;;12.53;;
65172;SDS011;69059;52.218;5.172;2023-12-04T05:22:53;23.50;;;12.63;;
65172;SDS011;69059;52.218;5.172;2023-12-04T05:25:21;23.23;;;12.80;;
65172;SDS011;69059;52.218;5.172;2023-12-04T05:27:52;23.97;;;12.57;;
65172;SDS011;69059;52.218;5.172;2023-12-04T05:30:21;21.50;;;12.90;;
65172;SDS011;69059;52.218;5.172;2023-12-04T05:32:49;24.93;;;13.77;;
65172;SDS011;69059;52.218;5.172;2023-12-04T05:35:17;23.33;;;12.40;;
65172;SDS011;69059;52.218;5.172;2023-12-04T05:37:45;18.43;;;11.40;;
65172;SDS011;69059;52.218;5.172;2023-12-04T05:40:13;21.27;;;12.47;;
65172;SDS011;69059;52.218;5.172;2023-12-04T05:42:41;23.30;;;12.05;;
65172;SDS011;69059;52.218;5.172;2023-12-04T05:45:09;22.57;;;12.03;;
65172;SDS011;69059;52.218;5.172;2023-12-04T05:47:38;25.13;;;13.50;;
65172;SDS011;69059;52.218;5.172;2023-12-04T05:50:06;22.20;;;12.97;;
65172;SDS011;69059;52.218;5.172;2023-12-04T05:55:02;22.40;;;13.10;;
65172;SDS011;69059;52.218;5.172;2023-12-04T05:57:30;22.00;;;13.02;;
65172;SDS011;69059;52.218;5.172;2023-12-04T05:59:58;21.33;;;12.33;;
65172;SDS011;69059;52.218;5.172;2023-12-04T06:02:26;22.40;;;12.77;;
65172;SDS011;69059;52.218;5.172;2023-12-04T06:04:55;19.25;;;12.93;;
65172;SDS011;69059;52.218;5.172;2023-12-04T06:07:23;22.97;;;12.70;;
65172;SDS011;69059;52.218;5.172;2023-12-04T06:09:51;21.40;;;12.27;;
65172;SDS011;69059;52.218;5.172;2023-12-04T06:12:18;19.80;;;12.03;;
65172;SDS011;69059;52.218;5.172;2023-12-04T06:14:46;18.13;;;11.73;;
65172;SDS011;69059;52.218;5.172;2023-12-04T06:17:14;21.10;;;12.33;;
65172;SDS011;69059;52.218;5.172;2023-12-04T06:19:42;21.40;;;12.27;;
65172;SDS011;69059;52.218;5.172;2023-12-04T06:22:12;23.50;;;14.17;;
65172;SDS011;69059;52.218;5.172;2023-12-04T06:24:40;19.00;;;11.53;;
65172;SDS011;69059;52.218;5.172;2023-12-04T06:27:09;22.65;;;14.02;;
65172;SDS011;69059;52.218;5.172;2023-12-04T06:29:40;20.63;;;11.87;;
65172;SDS011;69059;52.218;5.172;2023-12-04T06:32:08;18.25;;;10.95;;
65172;SDS011;69059;52.218;5.172;2023-12-04T06:34:37;18.40;;;12.47;;
65172;SDS011;69059;52.218;5.172;2023-12-04T06:37:06;18.30;;;11.32;;
65172;SDS011;69059;52.218;5.172;2023-12-04T06:39:39;17.80;;;11.50;;
65172;SDS011;69059;52.218;5.172;2023-12-04T06:42:07;17.77;;;11.27;;
65172;SDS011;69059;52.218;5.172;2023-12-04T06:44:36;18.47;;;11.43;;
65172;SDS011;69059;52.218;5.172;2023-12-04T06:47:05;17.75;;;10.52;;
65172;SDS011;69059;52.218;5.172;2023-12-04T06:49:36;19.73;;;11.00;;
65172;SDS011;69059;52.218;5.172;2023-12-04T06:52:04;16.87;;;10.20;;
65172;SDS011;69059;52.218;5.172;2023-12-04T06:54:32;15.82;;;10.20;;
65172;SDS011;69059;52.218;5.172;2023-12-04T06:57:01;18.13;;;10.20;;
65172;SDS011;69059;52.218;5.172;2023-12-04T06:59:29;16.30;;;10.43;;
65172;SDS011;69059;52.218;5.172;2023-12-04T07:01:57;17.03;;;10.30;;
65172;SDS011;69059;52.218;5.172;2023-12-04T07:04:24;16.70;;;10.40;;
65172;SDS011;69059;52.218;5.172;2023-12-04T07:06:52;18.23;;;10.23;;
65172;SDS011;69059;52.218;5.172;2023-12-04T07:09:20;17.08;;;10.27;;
65172;SDS011;69059;52.218;5.172;2023-12-04T07:11:48;18.58;;;11.05;;
65172;SDS011;69059;52.218;5.172;2023-12-04T07:14:17;15.23;;;10.63;;
65172;SDS011;69059;52.218;5.172;2023-12-04T07:16:46;16.70;;;10.00;;
65172;SDS011;69059;52.218;5.172;2023-12-04T07:19:13;15.23;;;9.27;;
65172;SDS011;69059;52.218;5.172;2023-12-04T07:21:42;18.83;;;10.07;;
65172;SDS011;69059;52.218;5.172;2023-12-04T07:24:10;16.30;;;10.07;;
65172;SDS011;69059;52.218;5.172;2023-12-04T07:26:38;14.30;;;9.53;;
65172;SDS011;69059;52.218;5.172;2023-12-04T07:29:06;15.80;;;9.63;;
65172;SDS011;69059;52.218;5.172;2023-12-04T07:31:35;14.20;;;9.07;;
65172;SDS011;69059;52.218;5.172;2023-12-04T07:34:02;16.43;;;9.37;;
65172;SDS011;69059;52.218;5.172;2023-12-04T07:36:30;15.03;;;9.90;;
65172;SDS011;69059;52.218;5.172;2023-12-04T07:38:58;15.07;;;9.55;;
65172;SDS011;69059;52.218;5.172;2023-12-04T07:41:26;14.87;;;9.17;;
65172;SDS011;69059;52.218;5.172;2023-12-04T07:43:54;15.33;;;9.23;;
65172;SDS011;69059;52.218;5.172;2023-12-04T07:46:21;12.87;;;9.20;;
65172;SDS011;69059;52.218;5.172;2023-12-04T07:48:51;14.43;;;9.70;;
65172;SDS011;69059;52.218;5.172;2023-12-04T07:51:21;13.93;;;8.87;;
65172;SDS011;69059;52.218;5.172;2023-12-04T07:53:49;14.70;;;9.60;;
65172;SDS011;69059;52.218;5.172;2023-12-04T07:56:17;13.00;;;8.33;;
65172;SDS011;69059;52.218;5.172;2023-12-04T07:58:44;12.90;;;8.67;;
65172;SDS011;69059;52.218;5.172;2023-12-04T08:01:13;12.60;;;8.97;;
65172;SDS011;69059;52.218;5.172;2023-12-04T08:03:42;14.50;;;9.27;;
65172;SDS011;69059;52.218;5.172;2023-12-04T08:06:11;16.40;;;8.88;;
65172;SDS011;69059;52.218;5.172;2023-12-04T08:08:39;13.40;;;8.50;;
65172;SDS011;69059;52.218;5.172;2023-12-04T08:11:09;12.57;;;8.85;;
65172;SDS011;69059;52.218;5.172;2023-12-04T08:13:37;11.97;;;8.30;;
65172;SDS011;69059;52.218;5.172;2023-12-04T08:16:12;11.93;;;7.70;;
65172;SDS011;69059;52.218;5.172;2023-12-04T08:18:41;12.10;;;8.37;;
65172;SDS011;69059;52.218;5.172;2023-12-04T08:21:10;11.13;;;7.40;;
65172;SDS011;69059;52.218;5.172;2023-12-04T08:23:39;12.10;;;7.93;;
65172;SDS011;69059;52.218;5.172;2023-12-04T08:26:07;12.87;;;8.13;;
65172;SDS011;69059;52.218;5.172;2023-12-04T08:28:35;12.30;;;7.93;;
65172;SDS011;69059;52.218;5.172;2023-12-04T08:33:33;14.53;;;8.53;;
65172;SDS011;69059;52.218;5.172;2023-12-04T08:36:02;12.02;;;8.32;;
65172;SDS011;69059;52.218;5.172;2023-12-04T08:38:32;10.88;;;7.55;;
65172;SDS011;69059;52.218;5.172;2023-12-04T08:40:59;12.03;;;7.63;;
65172;SDS011;69059;52.218;5.172;2023-12-04T08:43:27;12.57;;;8.47;;
65172;SDS011;69059;52.218;5.172;2023-12-04T08:45:56;13.48;;;8.23;;
65172;SDS011;69059;52.218;5.172;2023-12-04T08:48:23;11.80;;;7.87;;
65172;SDS011;69059;52.218;5.172;2023-12-04T08:50:51;11.63;;;7.37;;
65172;SDS011;69059;52.218;5.172;2023-12-04T08:53:19;12.03;;;7.70;;
65172;SDS011;69059;52.218;5.172;2023-12-04T08:55:48;10.50;;;7.60;;
65172;SDS011;69059;52.218;5.172;2023-12-04T08:58:17;12.17;;;7.57;;
65172;SDS011;69059;52.218;5.172;2023-12-04T09:00:45;11.57;;;7.97;;
65172;SDS011;69059;52.218;5.172;2023-12-04T09:03:13;8.67;;;6.33;;
65172;SDS011;69059;52.218;5.172;2023-12-04T09:05:51;10.52;;;6.82;;
65172;SDS011;69059;52.218;5.172;2023-12-04T09:08:22;9.50;;;6.67;;
65172;SDS011;69059;52.218;5.172;2023-12-04T09:11:04;12.30;;;7.37;;
65172;SDS011;69059;52.218;5.172;2023-12-04T09:13:35;10.53;;;7.07;;
65172;SDS011;69059;52.218;5.172;2023-12-04T09:16:04;11.07;;;6.72;;
65172;SDS011;69059;52.218;5.172;2023-12-04T09:18:32;10.07;;;6.47;;
65172;SDS011;69059;52.218;5.172;2023-12-04T09:21:00;11.18;;;6.88;;
65172;SDS011;69059;52.218;5.172;2023-12-04T09:23:28;10.93;;;7.27;;
65172;SDS011;69059;52.218;5.172;2023-12-04T09:25:56;10.95;;;6.80;;
65172;SDS011;69059;52.218;5.172;2023-12-04T09:28:26;9.03;;;6.20;;
65172;SDS011;69059;52.218;5.172;2023-12-04T09:30:53;9.30;;;7.00;;
65172;SDS011;69059;52.218;5.172;2023-12-04T09:33:21;11.70;;;7.17;;
65172;SDS011;69059;52.218;5.172;2023-12-04T09:35:49;10.25;;;6.40;;
65172;SDS011;69059;52.218;5.172;2023-12-04T09:38:17;8.93;;;6.17;;
65172;SDS011;69059;52.218;5.172;2023-12-04T09:40:44;9.17;;;6.50;;
65172;SDS011;69059;52.218;5.172;2023-12-04T09:43:12;6.93;;;5.57;;
65172;SDS011;69059;52.218;5.172;2023-12-04T09:45:42;10.05;;;6.45;;
65172;SDS011;69059;52.218;5.172;2023-12-04T09:48:10;10.20;;;6.80;;
65172;SDS011;69059;52.218;5.172;2023-12-04T09:50:38;8.52;;;6.05;;
65172;SDS011;69059;52.218;5.172;2023-12-04T09:53:10;8.80;;;6.38;;
65172;SDS011;69059;52.218;5.172;2023-12-04T09:55:38;9.07;;;6.23;;
65172;SDS011;69059;52.218;5.172;2023-12-04T09:58:05;9.30;;;5.73;;
65172;SDS011;69059;52.218;5.172;2023-12-04T10:00:33;8.30;;;5.65;;
65172;SDS011;69059;52.218;5.172;2023-12-04T10:03:03;8.30;;;5.78;;
65172;SDS011;69059;52.218;5.172;2023-12-04T10:05:31;8.10;;;5.87;;
65172;SDS011;69059;52.218;5.172;2023-12-04T10:07:58;7.77;;;5.50;;
65172;SDS011;69059;52.218;5.172;2023-12-04T10:10:26;8.03;;;5.60;;
65172;SDS011;69059;52.218;5.172;2023-12-04T10:12:54;8.77;;;5.97;;
65172;SDS011;69059;52.218;5.172;2023-12-04T10:15:22;8.53;;;5.87;;
65172;SDS011;69059;52.218;5.172;2023-12-04T10:17:49;8.97;;;5.47;;
65172;SDS011;69059;52.218;5.172;2023-12-04T10:20:19;8.88;;;5.50;;
65172;SDS011;69059;52.218;5.172;2023-12-04T10:22:57;8.57;;;6.03;;
65172;SDS011;69059;52.218;5.172;2023-12-04T10:25:26;7.90;;;5.10;;
65172;SDS011;69059;52.218;5.172;2023-12-04T10:28:06;9.93;;;5.70;;
65172;SDS011;69059;52.218;5.172;2023-12-04T10:30:35;9.63;;;5.60;;
65172;SDS011;69059;52.218;5.172;2023-12-04T10:33:03;7.72;;;5.80;;
65172;SDS011;69059;52.218;5.172;2023-12-04T10:35:34;9.27;;;6.07;;
65172;SDS011;69059;52.218;5.172;2023-12-04T10:38:03;8.93;;;5.77;;
65172;SDS011;69059;52.218;5.172;2023-12-04T10:40:32;9.87;;;5.77;;
65172;SDS011;69059;52.218;5.172;2023-12-04T10:43:11;8.43;;;6.10;;
65172;SDS011;69059;52.218;5.172;2023-12-04T10:45:43;7.60;;;5.50;;
65172;SDS011;69059;52.218;5.172;2023-12-04T10:48:12;9.50;;;5.77;;
65172;SDS011;69059;52.218;5.172;2023-12-04T10:50:43;9.10;;;6.30;;
65172;SDS011;69059;52.218;5.172;2023-12-04T10:53:13;10.43;;;5.77;;
65172;SDS011;69059;52.218;5.172;2023-12-04T10:55:42;9.00;;;6.17;;
65172;SDS011;69059;52.218;5.172;2023-12-04T10:58:11;15.10;;;6.60;;
65172;SDS011;69059;52.218;5.172;2023-12-04T11:00:42;13.63;;;5.73;;
65172;SDS011;69059;52.218;5.172;2023-12-04T11:03:13;10.37;;;6.50;;
65172;SDS011;69059;52.218;5.172;2023-12-04T11:05:47;9.00;;;5.97;;
65172;SDS011;69059;52.218;5.172;2023-12-04T11:08:19;9.20;;;6.00;;
65172;SDS011;69059;52.218;5.172;2023-12-04T11:10:50;8.13;;;5.87;;
65172;SDS011;69059;52.218;5.172;2023-12-04T11:13:26;9.20;;;6.87;;
65172;SDS011;69059;52.218;5.172;2023-12-04T11:15:56;11.27;;;6.50;;
65172;SDS011;69059;52.218;5.172;2023-12-04T11:18:31;10.10;;;6.47;;
65172;SDS011;69059;52.218;5.172;2023-12-04T11:21:07;9.37;;;6.83;;
65172;SDS011;69059;52.218;5.172;2023-12-04T11:23:36;9.37;;;6.60;;
65172;SDS011;69059;52.218;5.172;2023-12-04T11:26:05;9.30;;;5.88;;
65172;SDS011;69059;52.218;5.172;2023-12-04T11:28:34;10.80;;;7.17;;
65172;SDS011;69059;52.218;5.172;2023-12-04T11:31:05;17.97;;;7.87;;
65172;SDS011;69059;52.218;5.172;2023-12-04T11:36:10;8.88;;;6.10;;
65172;SDS011;69059;52.218;5.172;2023-12-04T11:38:43;11.88;;;6.57;;
65172;SDS011;69059;52.218;5.172;2023-12-04T11:41:16;9.07;;;6.33;;
65172;SDS011;69059;52.218;5.172;2023-12-04T11:43:50;12.17;;;7.07;;
65172;SDS011;69059;52.218;5.172;2023-12-04T11:46:19;10.00;;;7.07;;
65172;SDS011;69059;52.218;5.172;2023-12-04T11:48:49;11.13;;;7.37;;
65172;SDS011;69059;52.218;5.172;2023-12-04T11:54:18;16.37;;;7.50;;
65172;SDS011;69059;52.218;5.172;2023-12-04T11:56:56;14.00;;;7.93;;
65172;SDS011;69059;52.218;5.172;2023-12-04T11:59:26;9.90;;;7.23;;
65172;SDS011;69059;52.218;5.172;2023-12-04T12:01:54;10.38;;;7.00;;
65172;SDS011;69059;52.218;5.172;2023-12-04T12:04:24;9.93;;;7.23;;
65172;SDS011;69059;52.218;5.172;2023-12-04T12:06:58;10.40;;;6.77;;
65172;SDS011;69059;52.218;5.172;2023-12-04T12:09:28;15.37;;;7.30;;
65172;SDS011;69059;52.218;5.172;2023-12-04T12:11:56;10.33;;;6.90;;
65172;SDS011;69059;52.218;5.172;2023-12-04T12:14:26;10.33;;;7.80;;
65172;SDS011;69059;52.218;5.172;2023-12-04T12:16:54;11.23;;;7.70;;
65172;SDS011;69059;52.218;5.172;2023-12-04T12:19:22;12.25;;;8.05;;
65172;SDS011;69059;52.218;5.172;2023-12-04T12:21:50;11.47;;;7.60;;
65172;SDS011;69059;52.218;5.172;2023-12-04T12:24:20;11.20;;;7.97;;
65172;SDS011;69059;52.218;5.172;2023-12-04T12:26:48;13.67;;;7.43;;
65172;SDS011;69059;52.218;5.172;2023-12-04T12:29:15;10.53;;;7.70;;
65172;SDS011;69059;52.218;5.172;2023-12-04T12:31:43;11.83;;;7.90;;
65172;SDS011;69059;52.218;5.172;2023-12-04T12:36:40;11.88;;;7.47;;
65172;SDS011;69059;52.218;5.172;2023-12-04T12:39:08;13.70;;;8.73;;
65172;SDS011;69059;52.218;5.172;2023-12-04T12:41:39;14.27;;;8.37;;
65172;SDS011;69059;52.218;5.172;2023-12-04T12:44:07;16.43;;;8.90;;
65172;SDS011;69059;52.218;5.172;2023-12-04T12:46:35;12.27;;;8.38;;
65172;SDS011;69059;52.218;5.172;2023-12-04T12:49:03;12.45;;;8.65;;
65172;SDS011;69059;52.218;5.172;2023-12-04T12:51:32;12.85;;;8.13;;
65172;SDS011;69059;52.218;5.172;2023-12-04T12:54:00;12.97;;;8.80;;
65172;SDS011;69059;52.218;5.172;2023-12-04T12:56:27;12.67;;;8.43;;
65172;SDS011;69059;52.218;5.172;2023-12-04T12:58:57;11.73;;;7.60;;
65172;SDS011;69059;52.218;5.172;2023-12-04T13:01:24;12.80;;;9.27;;
65172;SDS011;69059;52.218;5.172;2023-12-04T13:03:58;11.20;;;8.17;;
65172;SDS011;69059;52.218;5.172;2023-12-04T13:06:27;10.20;;;7.97;;
65172;SDS011;69059;52.218;5.172;2023-12-04T13:08:58;13.07;;;9.07;;
65172;SDS011;69059;52.218;5.172;2023-12-04T13:11:25;13.10;;;9.00;;
65172;SDS011;69059;52.218;5.172;2023-12-04T13:13:53;13.23;;;9.27;;
65172;SDS011;69059;52.218;5.172;2023-12-04T13:16:25;13.03;;;8.50;;
65172;SDS011;69059;52.218;5.172;2023-12-04T13:18:53;12.60;;;8.50;;
65172;SDS011;69059;52.218;5.172;2023-12-04T13:21:22;13.98;;;8.45;;
65172;SDS011;69059;52.218;5.172;2023-12-04T13:23:49;18.23;;;8.87;;
65172;SDS011;69059;52.218;5.172;2023-12-04T13:26:17;12.77;;;8.53;;
65172;SDS011;69059;52.218;5.172;2023-12-04T13:28:46;12.57;;;8.83;;
65172;SDS011;69059;52.218;5.172;2023-12-04T13:31:14;12.75;;;8.32;;
65172;SDS011;69059;52.218;5.172;2023-12-04T13:33:43;14.48;;;8.77;;
65172;SDS011;69059;52.218;5.172;2023-12-04T13:36:13;16.67;;;8.87;;
65172;SDS011;69059;52.218;5.172;2023-12-04T13:38:41;11.93;;;9.07;;
65172;SDS011;69059;52.218;5.172;2023-12-04T13:41:08;13.30;;;9.43;;
65172;SDS011;69059;52.218;5.172;2023-12-04T13:44:06;12.63;;;9.00;;
65172;SDS011;69059;52.218;5.172;2023-12-04T13:46:33;11.83;;;8.27;;
65172;SDS011;69059;52.218;5.172;2023-12-04T13:49:02;13.27;;;8.97;;
65172;SDS011;69059;52.218;5.172;2023-12-04T13:51:29;11.67;;;8.57;;
65172;SDS011;69059;52.218;5.172;2023-12-04T13:53:57;12.50;;;8.67;;
65172;SDS011;69059;52.218;5.172;2023-12-04T13:56:35;12.60;;;8.80;;
65172;SDS011;69059;52.218;5.172;2023-12-04T13:59:15;14.03;;;9.60;;
65172;SDS011;69059;52.218;5.172;2023-12-04T14:01:46;13.67;;;8.70;;
65172;SDS011;69059;52.218;5.172;2023-12-04T14:04:17;14.20;;;8.97;;
65172;SDS011;69059;52.218;5.172;2023-12-04T14:06:46;13.67;;;9.10;;
65172;SDS011;69059;52.218;5.172;2023-12-04T14:09:14;13.70;;;9.13;;
65172;SDS011;69059;52.218;5.172;2023-12-04T14:11:42;14.02;;;10.15;;
65172;SDS011;69059;52.218;5.172;2023-12-04T14:14:11;13.07;;;9.23;;
65172;SDS011;69059;52.218;5.172;2023-12-04T14:16:40;14.48;;;9.43;;
65172;SDS011;69059;52.218;5.172;2023-12-04T14:19:08;14.18;;;9.55;;
65172;SDS011;69059;52.218;5.172;2023-12-04T14:21:38;14.07;;;9.88;;
65172;SDS011;69059;52.218;5.172;2023-12-04T14:24:06;14.00;;;9.03;;
65172;SDS011;69059;52.218;5.172;2023-12-04T14:26:34;15.97;;;9.77;;
65172;SDS011;69059;52.218;5.172;2023-12-04T14:29:02;13.23;;;9.05;;
65172;SDS011;69059;52.218;5.172;2023-12-04T14:31:30;12.70;;;9.13;;
65172;SDS011;69059;52.218;5.172;2023-12-04T14:34:00;14.33;;;9.17;;
65172;SDS011;69059;52.218;5.172;2023-12-04T14:36:29;15.87;;;8.80;;
65172;SDS011;69059;52.218;5.172;2023-12-04T14:38:59;14.20;;;9.40;;
65172;SDS011;69059;52.218;5.172;2023-12-04T14:41:27;15.47;;;9.20;;
65172;SDS011;69059;52.218;5.172;2023-12-04T14:43:55;12.97;;;9.03;;
65172;SDS011;69059;52.218;5.172;2023-12-04T14:46:23;13.25;;;8.48;;
65172;SDS011;69059;52.218;5.172;2023-12-04T14:48:51;14.97;;;9.27;;
65172;SDS011;69059;52.218;5.172;2023-12-04T14:51:19;13.02;;;8.57;;
65172;SDS011;69059;52.218;5.172;2023-12-04T14:53:47;14.30;;;9.47;;
65172;SDS011;69059;52.218;5.172;2023-12-04T14:56:18;13.60;;;9.33;;
65172;SDS011;69059;52.218;5.172;2023-12-04T14:59:03;14.00;;;9.57;;
65172;SDS011;69059;52.218;5.172;2023-12-04T15:01:39;13.63;;;9.30;;
65172;SDS011;69059;52.218;5.172;2023-12-04T15:04:30;13.50;;;9.20;;